Time;durP1;ratioP1;P1;durP2;ratioP2;P2;SDS_P1;SDS_P2;PMS_P1;PMS_P2;Temp;Humidity;BMP_temperature;BMP_pressure;BME280_temperature;BME280_humidity;BME280_pressure;Samples;Min_cycle;Max_cycle;Signal;HPM_P1;HPM_P2
2023/01/12 00:01:54;;;;;;;6.10;3.00;;;-3.20;99.90;;;;;;4991404;28;20145;-67
2023/01/12 00:04:22;;;;;;;6.30;3.42;;;-3.10;99.90;;;;;;4988795;28;20069;-68
2023/01/12 00:06:49;;;;;;;3.63;3.08;;;-3.10;99.90;;;;;;4972938;28;20543;-71
2023/01/12 00:09:16;;;;;;;3.92;2.45;;;-3.10;99.90;;;;;;4977676;28;20046;-67
2023/01/12 00:11:44;;;;;;;4.93;3.33;;;-3.10;99.90;;;;;;4987763;28;20471;-68
2023/01/12 00:14:11;;;;;;;7.93;3.33;;;-3.10;99.90;;;;;;4989432;28;20057;-69
2023/01/12 00:16:40;;;;;;;5.65;3.08;;;-3.10;99.90;;;;;;4991080;28;20046;-68
2023/01/12 00:19:10;;;;;;;8.10;3.47;;;-3.10;99.90;;;;;;4993301;28;20046;-67
2023/01/12 00:24:21;;;;;;;4.05;3.28;;;-3.10;99.90;;;;;;4986934;28;20511;-69
2023/01/12 00:26:49;;;;;;;3.65;2.78;;;-3.10;99.90;;;;;;4987526;28;20050;-67
2023/01/12 00:29:17;;;;;;;8.73;3.42;;;-3.00;99.90;;;;;;4989433;28;20058;-68
2023/01/12 00:31:46;;;;;;;7.32;3.78;;;-3.00;99.90;;;;;;4981109;28;20047;-68
2023/01/12 00:34:14;;;;;;;4.97;2.88;;;-3.10;99.90;;;;;;4989683;28;20407;-68
2023/01/12 00:36:42;;;;;;;8.52;3.60;;;-3.20;99.90;;;;;;4994208;28;20395;-67
2023/01/12 00:39:10;;;;;;;6.10;2.83;;;-3.10;99.90;;;;;;4992649;28;20058;-67
2023/01/12 00:47:11;;;;;;;6.28;3.25;;;-3.10;99.90;;;;;;4994379;28;20511;-68
2023/01/12 00:49:40;;;;;;;4.80;3.50;;;-3.10;99.90;;;;;;4992451;28;20054;-68
2023/01/12 00:52:11;;;;;;;14.15;3.00;;;-3.10;99.90;;;;;;4993468;28;20054;-68
2023/01/12 00:54:39;;;;;;;4.10;2.80;;;-3.10;99.90;;;;;;5006037;28;20431;-68
2023/01/12 00:57:07;;;;;;;4.80;3.00;;;-3.10;99.90;;;;;;4993733;28;20050;-67
2023/01/12 00:59:34;;;;;;;5.53;3.80;;;-3.10;99.90;;;;;;4970314;28;20077;-67
2023/01/12 01:02:02;;;;;;;6.15;3.03;;;-3.10;99.90;;;;;;4979386;28;20058;-67
2023/01/12 01:04:31;;;;;;;5.00;2.50;;;-3.10;99.90;;;;;;4990748;28;20062;-67
2023/01/12 01:06:58;;;;;;;5.50;3.33;;;-3.10;99.90;;;;;;4993432;28;20128;-67
2023/01/12 01:09:26;;;;;;;4.88;3.60;;;-3.20;99.90;;;;;;4990285;28;20537;-69
2023/01/12 01:11:53;;;;;;;6.45;3.70;;;-3.20;99.90;;;;;;4991098;28;20427;-68
2023/01/12 01:14:20;;;;;;;7.35;3.55;;;-3.10;99.90;;;;;;4993691;28;20568;-68
2023/01/12 01:16:48;;;;;;;7.30;4.35;;;-3.20;99.90;;;;;;4991101;28;20046;-68
2023/01/12 01:19:15;;;;;;;6.13;3.63;;;-3.10;99.90;;;;;;4990332;28;20046;-68
2023/01/12 01:21:44;;;;;;;5.47;2.72;;;-3.20;99.90;;;;;;5003228;28;20077;-67
2023/01/12 01:24:13;;;;;;;6.43;3.80;;;-3.10;99.90;;;;;;4989011;28;20506;-67
2023/01/12 01:26:42;;;;;;;7.50;3.33;;;-3.20;99.90;;;;;;4991091;28;20097;-67
2023/01/12 01:29:10;;;;;;;6.07;3.70;;;-3.20;99.90;;;;;;4988260;28;20062;-68
2023/01/12 01:31:37;;;;;;;7.30;3.97;;;-3.10;99.90;;;;;;4991114;28;20133;-69
2023/01/12 01:34:05;;;;;;;9.02;3.10;;;-3.10;99.90;;;;;;4992621;28;20066;-67
2023/01/12 01:36:32;;;;;;;6.07;3.50;;;-3.10;99.90;;;;;;4984618;28;20053;-67
2023/01/12 01:39:01;;;;;;;6.10;3.78;;;-3.10;99.90;;;;;;4986645;28;20104;-68
2023/01/12 01:41:31;;;;;;;4.88;3.45;;;-3.10;99.90;;;;;;4992314;28;20104;-67
2023/01/12 01:44:01;;;;;;;4.53;3.38;;;-3.10;99.90;;;;;;4992398;28;20057;-67
2023/01/12 01:46:39;;;;;;;7.75;4.30;;;-3.10;99.90;;;;;;4987983;28;20046;-67
2023/01/12 01:49:28;;;;;;;8.27;3.40;;;-3.10;99.90;;;;;;5004634;28;20058;-68
2023/01/12 01:52:00;;;;;;;5.43;3.30;;;-3.10;99.90;;;;;;4978348;28;20547;-68
2023/01/12 01:54:34;;;;;;;25.17;4.30;;;-3.10;99.90;;;;;;5009949;28;20061;-67
2023/01/12 01:57:01;;;;;;;6.38;3.30;;;-3.10;99.90;;;;;;4991450;28;20061;-68
2023/01/12 01:59:35;;;;;;;8.75;3.58;;;-3.10;99.90;;;;;;4990855;28;20122;-68
2023/01/12 02:02:03;;;;;;;6.45;3.22;;;-3.10;99.90;;;;;;4992142;28;20460;-68
2023/01/12 02:04:31;;;;;;;5.85;3.25;;;-3.10;99.90;;;;;;4989497;28;20050;-68
2023/01/12 02:07:00;;;;;;;5.82;3.53;;;-3.00;99.90;;;;;;4989905;28;20068;-68
2023/01/12 02:09:30;;;;;;;6.28;3.40;;;-3.10;99.90;;;;;;4991100;28;20058;-67
2023/01/12 02:17:50;;;;;;;6.30;3.22;;;-3.10;99.90;;;;;;4991262;28;20050;-67
2023/01/12 02:20:58;;;;;;;3.05;2.75;;;-3.10;99.90;;;;;;4989746;28;20061;-67
2023/01/12 02:23:57;;;;;;;6.35;3.60;;;-3.10;99.90;;;;;;4988460;28;20503;-67
2023/01/12 02:27:06;;;;;;;6.88;3.65;;;-3.20;99.90;;;;;;4991463;28;20050;-67
2023/01/12 02:30:46;;;;;;;5.93;3.17;;;-3.20;99.90;;;;;;4987091;28;20530;-66
2023/01/12 02:33:36;;;;;;;5.63;3.25;;;-3.30;99.90;;;;;;4927991;29;20517;-68
2023/01/12 02:36:15;;;;;;;5.57;3.30;;;-3.20;99.90;;;;;;4991780;28;20047;-67
2023/01/12 02:38:51;;;;;;;8.70;3.33;;;-3.20;99.90;;;;;;4980868;28;20424;-68
2023/01/12 02:42:39;;;;;;;3.67;2.72;;;-3.20;99.90;;;;;;4988789;28;20054;-67
2023/01/12 02:44:19;;;;;;;6.75;3.40;;;-3.20;99.90;;;;;;4985128;28;20046;-68
2023/01/12 02:46:51;;;;;;;6.70;3.75;;;-3.20;99.90;;;;;;4985140;28;20059;-69
2023/01/12 02:49:23;;;;;;;6.63;4.25;;;-3.20;99.90;;;;;;4979748;28;20057;-67
2023/01/12 02:51:56;;;;;;;5.40;3.53;;;-3.20;99.90;;;;;;4988996;28;20050;-68
2023/01/12 02:54:25;;;;;;;6.50;3.80;;;-3.20;99.90;;;;;;4990793;28;20481;-68
2023/01/12 02:56:55;;;;;;;5.38;3.47;;;-3.20;99.90;;;;;;4991271;28;20050;-66
2023/01/12 02:59:29;;;;;;;8.00;4.25;;;-3.20;99.90;;;;;;4987545;28;20186;-66
2023/01/12 03:02:01;;;;;;;8.73;3.97;;;-3.20;99.90;;;;;;4990467;28;20081;-67
2023/01/12 03:04:33;;;;;;;6.43;3.10;;;-3.10;99.90;;;;;;4991346;28;20434;-67
2023/01/12 03:07:27;;;;;;;5.68;3.78;;;-3.10;99.90;;;;;;4990997;28;20089;-68
2023/01/12 03:09:59;;;;;;;7.03;3.97;;;-3.10;99.90;;;;;;4981586;28;20061;-68
2023/01/12 03:12:32;;;;;;;12.57;4.28;;;-3.10;99.90;;;;;;4988529;28;20553;-68
2023/01/12 03:15:06;;;;;;;7.10;3.85;;;-3.10;99.90;;;;;;4990781;28;20066;-67
2023/01/12 03:17:38;;;;;;;8.82;3.97;;;-3.10;99.90;;;;;;4987155;28;20481;-69
2023/01/12 03:20:16;;;;;;;6.32;4.00;;;-3.10;99.90;;;;;;4988880;28;20149;-68
2023/01/12 03:22:45;;;;;;;5.63;4.03;;;-3.10;99.90;;;;;;4979906;28;20142;-67
2023/01/12 03:25:17;;;;;;;10.10;3.97;;;-3.10;99.90;;;;;;4990963;28;20047;-68
2023/01/12 03:27:48;;;;;;;9.07;4.45;;;-3.10;99.90;;;;;;4987964;28;20068;-69
2023/01/12 03:30:22;;;;;;;6.03;4.05;;;-3.10;99.90;;;;;;4988918;28;20061;-68
2023/01/12 03:32:50;;;;;;;5.38;3.53;;;-3.10;99.90;;;;;;4990986;28;20050;-68
2023/01/12 03:35:25;;;;;;;7.15;4.15;;;-3.10;99.90;;;;;;4989756;28;20045;-69
2023/01/12 03:37:58;;;;;;;6.57;3.80;;;-3.00;99.90;;;;;;4989276;28;20141;-69
2023/01/12 03:40:32;;;;;;;7.43;3.90;;;-3.10;99.90;;;;;;4990298;28;20050;-69
2023/01/12 03:43:07;;;;;;;6.57;3.70;;;-3.00;99.90;;;;;;4987937;28;20149;-72
2023/01/12 03:45:39;;;;;;;10.13;3.75;;;-3.00;99.90;;;;;;4981034;28;20077;-72
2023/01/12 03:48:14;;;;;;;7.50;3.95;;;-3.10;99.90;;;;;;4988725;28;20054;-72
2023/01/12 03:50:48;;;;;;;8.73;4.30;;;-3.10;99.90;;;;;;4991975;28;20108;-72
2023/01/12 03:53:20;;;;;;;9.68;4.38;;;-3.00;99.90;;;;;;5008670;28;20060;-73
2023/01/12 03:55:52;;;;;;;5.70;4.05;;;-3.00;99.90;;;;;;4991120;28;20422;-71
2023/01/12 03:58:19;;;;;;;3.47;3.05;;;-3.00;99.90;;;;;;4992731;28;20502;-71
2023/01/12 04:00:47;;;;;;;7.32;4.45;;;-3.00;99.90;;;;;;4992148;28;20097;-71
2023/01/12 04:03:16;;;;;;;6.10;3.80;;;-3.10;99.90;;;;;;4989602;28;20125;-72
2023/01/12 04:05:46;;;;;;;6.95;4.30;;;-3.10;99.90;;;;;;4992583;28;20066;-71
2023/01/12 04:08:16;;;;;;;8.85;5.20;;;-3.20;99.90;;;;;;5006586;28;20070;-72
2023/01/12 04:10:43;;;;;;;7.85;3.95;;;-3.10;99.90;;;;;;4986742;28;20140;-71
2023/01/12 04:13:10;;;;;;;8.30;4.70;;;-3.10;99.90;;;;;;4991464;28;20038;-74
2023/01/12 04:15:41;;;;;;;9.20;4.45;;;-3.10;99.90;;;;;;4988200;28;20050;-74
2023/01/12 04:18:10;;;;;;;8.35;3.78;;;-3.20;99.90;;;;;;4989674;28;20085;-75
2023/01/12 04:20:39;;;;;;;15.55;5.05;;;-3.20;99.90;;;;;;4994528;28;20058;-68
2023/01/12 04:23:08;;;;;;;9.85;4.43;;;-3.20;99.90;;;;;;4995233;28;20045;-69
2023/01/12 04:25:35;;;;;;;7.65;4.35;;;-3.20;99.90;;;;;;4990518;28;20050;-69
2023/01/12 04:28:03;;;;;;;10.95;4.82;;;-3.20;99.90;;;;;;4993178;28;20422;-69
2023/01/12 04:30:33;;;;;;;5.22;4.05;;;-3.20;99.90;;;;;;4990006;28;20050;-68
2023/01/12 04:33:06;;;;;;;8.77;5.10;;;-3.20;99.90;;;;;;4991544;28;20046;-68
2023/01/12 04:35:34;;;;;;;8.63;5.28;;;-3.20;99.90;;;;;;4991823;28;20058;-69
2023/01/12 04:38:10;;;;;;;10.57;4.53;;;-3.30;99.90;;;;;;4985000;28;20553;-74
2023/01/12 04:40:41;;;;;;;8.43;5.05;;;-3.20;99.90;;;;;;4988136;28;20105;-74
2023/01/12 04:43:10;;;;;;;;;;;-3.20;99.90;;;;;;4973117;28;20060;-74
2023/01/12 04:45:42;;;;;;;10.13;4.47;;;-3.20;99.90;;;;;;4981950;28;19926;-75
2023/01/12 04:48:12;;;;;;;7.45;3.90;;;-3.20;99.90;;;;;;4986919;28;20065;-74
2023/01/12 04:50:43;;;;;;;8.18;4.75;;;-3.20;99.90;;;;;;4995637;28;20058;-68
2023/01/12 04:53:12;;;;;;;9.27;4.72;;;-3.20;99.90;;;;;;4987471;28;20050;-68
2023/01/12 04:55:43;;;;;;;8.40;4.40;;;-3.20;99.90;;;;;;4983095;28;20061;-69
2023/01/12 04:58:11;;;;;;;9.05;4.60;;;-3.20;99.90;;;;;;4982288;28;20514;-69
2023/01/12 05:00:38;;;;;;;11.73;4.72;;;-3.20;99.90;;;;;;4985740;28;20061;-68
2023/01/12 05:03:05;;;;;;;14.48;6.32;;;-3.20;99.90;;;;;;4992346;28;20046;-69
2023/01/12 05:05:34;;;;;;;7.75;5.43;;;-3.30;99.90;;;;;;4985748;28;20034;-70
2023/01/12 05:10:52;;;;;;;9.25;5.43;;;-3.30;99.90;;;;;;4983958;28;20132;-70
2023/01/12 05:13:19;;;;;;;9.10;4.95;;;-3.30;99.90;;;;;;5000641;28;20054;-69
2023/01/12 05:15:47;;;;;;;9.57;5.47;;;-3.30;99.90;;;;;;4989253;28;20042;-69
2023/01/12 05:18:14;;;;;;;10.40;5.10;;;-3.30;99.90;;;;;;4997952;28;20189;-69
2023/01/12 05:20:42;;;;;;;9.30;5.18;;;-3.30;99.90;;;;;;4998599;28;20096;-69
2023/01/12 05:23:09;;;;;;;10.40;4.88;;;-3.30;99.90;;;;;;5002039;28;20079;-69
2023/01/12 05:25:36;;;;;;;13.13;6.45;;;-3.30;99.90;;;;;;5001858;28;20049;-69
2023/01/12 05:28:05;;;;;;;8.73;5.13;;;-3.30;99.90;;;;;;5000309;28;20057;-68
2023/01/12 05:30:33;;;;;;;10.20;5.85;;;-3.30;99.90;;;;;;5005637;28;20159;-68
2023/01/12 05:33:00;;;;;;;12.23;5.32;;;-3.20;99.90;;;;;;4993844;28;20625;-68
2023/01/12 05:35:28;;;;;;;10.93;6.03;;;-3.20;99.90;;;;;;4992929;28;20046;-68
2023/01/12 05:37:56;;;;;;;11.63;5.50;;;-3.20;99.90;;;;;;4989384;28;20054;-69
2023/01/12 05:40:25;;;;;;;8.88;4.72;;;-3.20;99.90;;;;;;4996716;28;20462;-69
2023/01/12 05:45:39;;;;;;;9.90;6.15;;;-3.20;99.90;;;;;;4995349;28;20050;-68
2023/01/12 05:48:08;;;;;;;9.70;5.18;;;-3.20;99.90;;;;;;5000742;28;20046;-68
2023/01/12 05:50:36;;;;;;;12.07;6.07;;;-3.20;99.90;;;;;;5005064;28;20061;-68
2023/01/12 05:53:10;;;;;;;9.80;4.88;;;-3.20;99.90;;;;;;5001940;28;20045;-69
2023/01/12 05:55:39;;;;;;;18.08;5.03;;;-3.20;99.90;;;;;;4972097;28;20062;-69
2023/01/12 05:58:07;;;;;;;10.77;6.18;;;-3.20;99.90;;;;;;4985026;28;20046;-69
2023/01/12 06:00:34;;;;;;;11.80;4.65;;;-3.20;99.90;;;;;;4997045;28;20050;-69
2023/01/12 06:03:03;;;;;;;15.60;5.68;;;-3.20;99.90;;;;;;4992036;28;20074;-69
2023/01/12 06:05:32;;;;;;;13.85;5.50;;;-3.10;99.90;;;;;;4990353;28;20547;-69
2023/01/12 06:08:01;;;;;;;9.82;6.30;;;-3.10;99.90;;;;;;4996900;28;20506;-69
2023/01/12 06:10:29;;;;;;;12.27;6.13;;;-3.10;99.90;;;;;;4990038;28;20054;-68
2023/01/12 06:15:42;;;;;;;9.35;5.90;;;-3.10;99.90;;;;;;4987444;28;20050;-69
2023/01/12 06:18:11;;;;;;;12.60;6.35;;;-3.10;99.90;;;;;;4996453;28;20141;-70
2023/01/12 06:20:38;;;;;;;11.07;6.00;;;-3.10;99.90;;;;;;5001112;28;20061;-69
2023/01/12 06:23:06;;;;;;;10.50;5.40;;;-3.10;99.90;;;;;;4995260;28;20053;-70
2023/01/12 06:25:35;;;;;;;11.20;5.43;;;-3.10;99.90;;;;;;4993024;28;20046;-68
2023/01/12 06:28:05;;;;;;;14.15;6.13;;;-3.10;99.90;;;;;;5001219;28;20042;-72
2023/01/12 06:30:35;;;;;;;9.25;6.20;;;-3.10;99.90;;;;;;5001354;28;20065;-69
2023/01/12 06:33:03;;;;;;;12.20;6.05;;;-3.10;99.90;;;;;;5005978;28;20042;-68
2023/01/12 06:35:34;;;;;;;12.43;5.63;;;-3.10;99.90;;;;;;4973707;28;20137;-68
2023/01/12 06:38:18;;;;;;;10.77;5.57;;;-3.00;99.90;;;;;;4989576;28;20050;-71
2023/01/12 06:40:49;;;;;;;11.55;6.35;;;-3.10;99.90;;;;;;4957448;28;20054;-69
2023/01/12 06:43:18;;;;;;;10.63;6.38;;;-3.10;99.90;;;;;;4970294;28;20081;-69
2023/01/12 06:45:46;;;;;;;11.85;6.18;;;-3.10;99.90;;;;;;4981967;28;20419;-68
2023/01/12 06:48:14;;;;;;;10.90;5.82;;;-3.00;99.90;;;;;;4987889;28;20546;-69
2023/01/12 06:50:43;;;;;;;10.98;6.10;;;-3.00;99.90;;;;;;4984416;28;20043;-69
2023/01/12 06:53:10;;;;;;;11.00;4.82;;;-3.00;99.90;;;;;;4989532;28;20537;-69
2023/01/12 06:55:37;;;;;;;13.90;6.82;;;-3.00;99.90;;;;;;4993567;28;20041;-68
2023/01/12 06:58:05;;;;;;;10.25;5.88;;;-3.00;99.90;;;;;;4983353;28;20062;-69
2023/01/12 07:00:33;;;;;;;16.05;6.57;;;-3.00;99.90;;;;;;4984247;28;20069;-69
2023/01/12 07:03:00;;;;;;;12.50;6.13;;;-2.90;99.90;;;;;;4983256;28;20101;-69
2023/01/12 07:05:27;;;;;;;13.70;6.32;;;-2.90;99.90;;;;;;4985728;28;20031;-69
2023/01/12 07:08:00;;;;;;;11.70;6.10;;;-2.90;99.90;;;;;;4992106;28;20046;-68
2023/01/12 07:10:27;;;;;;;18.58;6.20;;;-2.90;99.90;;;;;;4963427;28;20074;-68
2023/01/12 07:12:55;;;;;;;13.15;6.60;;;-2.90;99.90;;;;;;4986550;28;20133;-68
2023/01/12 07:15:23;;;;;;;10.77;6.60;;;-2.90;99.90;;;;;;4982691;28;20136;-68
2023/01/12 07:17:56;;;;;;;12.88;6.07;;;-2.90;99.90;;;;;;4991136;28;20046;-69
2023/01/12 07:20:24;;;;;;;12.93;7.10;;;-2.90;99.90;;;;;;4983864;28;20061;-69
2023/01/12 07:22:51;;;;;;;13.05;6.63;;;-2.90;99.90;;;;;;4985652;28;20105;-68
2023/01/12 07:25:20;;;;;;;13.98;7.00;;;-2.90;99.90;;;;;;4985000;28;20483;-68
2023/01/12 07:27:50;;;;;;;10.45;6.22;;;-2.90;99.90;;;;;;4984290;28;20046;-68
2023/01/12 07:30:19;;;;;;;12.18;6.28;;;-2.90;99.90;;;;;;4987335;28;20049;-68
2023/01/12 07:32:46;;;;;;;10.57;6.20;;;-2.80;99.90;;;;;;4990332;28;20137;-68
2023/01/12 07:35:15;;;;;;;12.48;6.43;;;-2.90;99.90;;;;;;4990416;28;20523;-67
2023/01/12 07:37:48;;;;;;;11.05;6.35;;;-2.80;99.90;;;;;;4984181;28;20042;-71
2023/01/12 07:40:17;;;;;;;15.40;6.28;;;-2.80;99.90;;;;;;4930327;28;198893;-71
2023/01/12 07:42:46;;;;;;;11.23;6.35;;;-2.80;99.90;;;;;;4995912;28;20050;-72
2023/01/12 07:45:13;;;;;;;13.15;6.72;;;-2.80;99.90;;;;;;4998752;28;20061;-75
2023/01/12 07:47:41;;;;;;;13.15;6.00;;;-2.80;99.90;;;;;;4989510;28;20054;-73
2023/01/12 07:50:11;;;;;;;14.57;6.43;;;-2.80;99.90;;;;;;4985162;28;20441;-73
2023/01/12 07:52:40;;;;;;;12.52;6.85;;;-2.80;99.90;;;;;;4986860;28;20046;-72
2023/01/12 07:55:08;;;;;;;11.88;6.15;;;-2.80;99.90;;;;;;4986110;28;20173;-72
2023/01/12 07:57:36;;;;;;;11.93;5.72;;;-2.80;99.90;;;;;;4982682;28;20077;-74
2023/01/12 08:00:07;;;;;;;9.82;5.90;;;-2.80;99.90;;;;;;4996002;28;20060;-73
2023/01/12 08:02:35;;;;;;;12.23;6.28;;;-2.90;99.90;;;;;;4991561;28;20518;-75
2023/01/12 08:05:02;;;;;;;13.77;6.28;;;-2.90;99.90;;;;;;4984172;28;20042;-73
2023/01/12 08:07:32;;;;;;;16.08;7.20;;;-2.90;99.90;;;;;;4988286;28;20050;-75
2023/01/12 08:10:00;;;;;;;14.13;7.55;;;-2.90;99.90;;;;;;4990930;28;20568;-75
2023/01/12 08:12:30;;;;;;;12.43;6.28;;;-2.90;99.90;;;;;;4985424;28;20052;-73
2023/01/12 08:14:59;;;;;;;13.07;6.78;;;-2.90;99.90;;;;;;4962453;28;20058;-72
2023/01/12 08:17:29;;;;;;;17.27;7.00;;;-2.90;99.90;;;;;;4984269;28;20046;-72
2023/01/12 08:20:06;;;;;;;14.82;6.47;;;-2.90;99.90;;;;;;4987727;28;20058;-73
2023/01/12 08:22:38;;;;;;;11.68;6.40;;;-3.00;99.90;;;;;;4997552;28;20080;-69
2023/01/12 08:25:11;;;;;;;13.43;6.07;;;-2.90;99.90;;;;;;4986981;28;20047;-68
2023/01/12 08:27:41;;;;;;;14.45;7.10;;;-2.90;99.90;;;;;;4985033;28;20069;-69
2023/01/12 08:30:10;;;;;;;11.10;6.50;;;-3.00;99.90;;;;;;4982866;28;20058;-68
2023/01/12 08:32:39;;;;;;;11.13;6.32;;;-2.90;99.90;;;;;;4983079;28;20557;-68
2023/01/12 08:35:08;;;;;;;17.42;8.95;;;-2.90;99.90;;;;;;4987070;28;20046;-70
2023/01/12 08:37:35;;;;;;;13.95;6.90;;;-2.90;99.90;;;;;;4988853;28;20403;-70
2023/01/12 08:40:05;;;;;;;12.40;7.28;;;-2.90;99.90;;;;;;5004153;28;20053;-69
2023/01/12 08:42:33;;;;;;;15.43;7.28;;;-3.00;99.90;;;;;;4985906;28;20046;-70
2023/01/12 08:45:00;;;;;;;15.60;6.53;;;-2.90;99.90;;;;;;4986784;28;20085;-67
2023/01/12 08:47:29;;;;;;;12.05;6.78;;;-2.90;99.90;;;;;;4967439;28;20042;-70
2023/01/12 08:49:59;;;;;;;17.70;6.93;;;-2.90;99.90;;;;;;4991664;28;20046;-71
2023/01/12 08:52:30;;;;;;;10.85;6.32;;;-2.90;99.90;;;;;;4983803;28;20045;-69
2023/01/12 08:54:58;;;;;;;11.20;6.88;;;-2.90;99.90;;;;;;4989441;28;20073;-69
2023/01/12 08:57:25;;;;;;;12.15;6.68;;;-2.90;99.90;;;;;;4988083;28;20068;-68
2023/01/12 08:59:53;;;;;;;13.73;6.45;;;-2.80;99.90;;;;;;4981883;28;20050;-69
2023/01/12 09:02:20;;;;;;;12.15;6.78;;;-2.80;99.90;;;;;;4984478;28;20050;-69
2023/01/12 09:04:48;;;;;;;14.18;7.75;;;-2.80;99.90;;;;;;4985336;28;21410;-71
2023/01/12 09:07:18;;;;;;;12.00;6.90;;;-2.80;99.90;;;;;;4994139;28;21802;-70
2023/01/12 09:09:46;;;;;;;17.20;7.07;;;-2.80;99.90;;;;;;4989970;28;20070;-69
2023/01/12 09:12:13;;;;;;;13.70;7.32;;;-2.80;99.90;;;;;;4986869;28;20092;-69
2023/01/12 09:14:40;;;;;;;16.52;7.53;;;-2.80;99.90;;;;;;4987315;28;20422;-69
2023/01/12 09:17:08;;;;;;;10.75;5.97;;;-2.80;99.90;;;;;;4992740;28;20038;-70
2023/01/12 09:19:36;;;;;;;18.15;7.90;;;-2.80;99.90;;;;;;4993236;28;20050;-69
2023/01/12 09:22:03;;;;;;;17.10;8.05;;;-2.70;99.90;;;;;;4988398;28;20062;-70
2023/01/12 09:24:32;;;;;;;15.77;7.38;;;-2.70;99.90;;;;;;4988329;28;20047;-69
2023/01/12 09:27:00;;;;;;;15.65;8.48;;;-2.70;99.90;;;;;;4987532;28;20038;-70
2023/01/12 09:29:27;;;;;;;15.52;6.72;;;-2.70;99.90;;;;;;4984749;28;20069;-69
2023/01/12 09:31:55;;;;;;;17.38;7.85;;;-2.70;99.90;;;;;;4986445;28;20491;-70
2023/01/12 09:34:23;;;;;;;12.07;6.68;;;-2.70;99.90;;;;;;4984799;28;20050;-69
2023/01/12 09:36:51;;;;;;;14.70;7.05;;;-2.70;99.90;;;;;;4988107;28;20100;-70
2023/01/12 09:39:18;;;;;;;13.25;7.32;;;-2.70;99.90;;;;;;4985512;28;20053;-69
2023/01/12 09:47:32;;;;;;;12.07;7.07;;;-2.70;99.90;;;;;;4984380;28;20043;-67
2023/01/12 09:50:06;;;;;;;12.93;6.75;;;-2.70;99.90;;;;;;4984935;28;20057;-69
2023/01/12 09:52:38;;;;;;;12.75;7.35;;;-2.70;99.90;;;;;;4985474;28;20053;-69
2023/01/12 09:55:12;;;;;;;15.32;8.20;;;-2.70;99.90;;;;;;4987467;28;20050;-71
2023/01/12 09:58:16;;;;;;;10.80;6.20;;;-2.70;99.90;;;;;;4985229;28;20153;-70
2023/01/12 10:00:43;;;;;;;13.63;8.27;;;-2.70;99.90;;;;;;4985098;28;20050;-74
2023/01/12 10:03:19;;;;;;;16.60;7.43;;;-2.70;99.90;;;;;;4986450;28;20132;-74
2023/01/12 10:05:49;;;;;;;12.35;6.45;;;-2.70;99.90;;;;;;4985386;28;20070;-74
2023/01/12 10:08:35;;;;;;;20.83;6.75;;;-2.60;99.90;;;;;;4985886;28;20050;-75
2023/01/12 10:11:17;;;;;;;17.25;8.18;;;-2.60;99.90;;;;;;4985985;28;20069;-71
2023/01/12 10:14:27;;;;;;;16.38;7.47;;;-2.70;99.90;;;;;;4987858;28;20048;-74
2023/01/12 10:17:13;;;;;;;12.00;7.35;;;-2.70;99.90;;;;;;4985352;28;20050;-75
2023/01/12 10:19:53;;;;;;;16.27;7.95;;;-2.70;99.90;;;;;;4986120;28;20072;-75
2023/01/12 10:22:37;;;;;;;14.98;7.25;;;-2.70;99.90;;;;;;4988706;28;20085;-76
2023/01/12 10:25:27;;;;;;;16.20;8.30;;;-2.70;99.90;;;;;;4982767;28;20050;-74
2023/01/12 10:27:57;;;;;;;17.50;8.23;;;-2.70;99.90;;;;;;4984957;28;20546;-76
2023/01/12 10:30:31;;;;;;;12.68;6.93;;;-2.70;99.90;;;;;;4985957;28;20066;-74
2023/01/12 10:33:10;;;;;;;9.98;6.85;;;-2.60;99.90;;;;;;4986969;28;20050;-75
2023/01/12 10:35:50;;;;;;;14.93;6.97;;;-2.60;99.90;;;;;;4985665;28;20042;-76
2023/01/12 10:38:26;;;;;;;13.25;7.20;;;-2.60;99.90;;;;;;4991514;28;20062;-75
2023/01/12 10:41:15;;;;;;;15.93;8.65;;;-2.60;99.90;;;;;;4990211;28;20533;-74
2023/01/12 10:43:45;;;;;;;12.13;5.93;;;-2.60;99.90;;;;;;4984132;28;20470;-69
2023/01/12 10:46:25;;;;;;;11.30;6.70;;;-2.60;99.90;;;;;;4984863;28;20073;-69
2023/01/12 10:48:55;;;;;;;14.02;7.13;;;-2.60;99.90;;;;;;4988529;28;20050;-68
2023/01/12 10:51:26;;;;;;;17.52;8.00;;;-2.60;99.90;;;;;;4986105;28;20636;-72
2023/01/12 10:54:00;;;;;;;15.43;7.82;;;-2.60;99.90;;;;;;4985586;28;20050;-71
2023/01/12 10:56:31;;;;;;;;;;;-2.60;99.90;;;;;;4985865;28;20053;-67
2023/01/12 10:59:03;;;;;;;11.63;7.13;;;-2.60;99.90;;;;;;4986796;28;19931;-70
2023/01/12 11:01:47;;;;;;;11.73;6.63;;;-2.60;99.90;;;;;;4985699;28;20054;-69
2023/01/12 11:04:20;;;;;;;12.02;6.65;;;-2.50;99.90;;;;;;4985273;28;20449;-71
2023/01/12 11:07:00;;;;;;;13.13;7.45;;;-2.60;99.90;;;;;;4987200;28;20552;-71
2023/01/12 11:09:30;;;;;;;13.35;6.70;;;-2.60;99.90;;;;;;4989391;28;20498;-70
2023/01/12 11:12:00;;;;;;;14.32;7.95;;;-2.60;99.90;;;;;;4985327;28;20503;-70
2023/01/12 11:14:31;;;;;;;14.63;7.80;;;-2.60;99.90;;;;;;4990020;28;20297;-71
2023/01/12 11:17:28;;;;;;;10.68;6.50;;;-2.60;99.90;;;;;;4990333;28;20111;-68
2023/01/12 11:20:00;;;;;;;14.13;6.45;;;-2.50;99.90;;;;;;4988154;28;20630;-67
2023/01/12 11:22:35;;;;;;;12.57;7.50;;;-2.60;99.90;;;;;;4990776;28;20050;-69
2023/01/12 11:25:10;;;;;;;12.82;6.80;;;-2.60;99.90;;;;;;4990131;28;20466;-68
2023/01/12 11:27:43;;;;;;;10.38;6.55;;;-2.50;99.90;;;;;;4992011;28;20384;-70
2023/01/12 11:30:20;;;;;;;12.43;6.80;;;-2.50;99.90;;;;;;4988791;28;20047;-74
2023/01/12 11:32:57;;;;;;;13.38;6.97;;;-2.50;99.90;;;;;;4989974;28;20054;-74
2023/01/12 11:35:35;;;;;;;11.90;6.07;;;-2.50;99.90;;;;;;4990437;28;20146;-73
2023/01/12 11:38:12;;;;;;;12.90;6.68;;;-2.50;99.90;;;;;;4987439;28;20050;-72
2023/01/12 11:40:41;;;;;;;12.25;6.00;;;-2.50;99.90;;;;;;4993270;28;20058;-73
2023/01/12 11:46:19;;;;;;;11.73;6.47;;;-2.60;99.90;;;;;;4998040;28;20066;-75
2023/01/12 11:49:07;;;;;;;12.00;6.20;;;-2.50;99.90;;;;;;4985840;28;20136;-77
2023/01/12 11:51:35;;;;;;;9.98;6.45;;;-2.50;99.90;;;;;;4982925;28;20052;-75
2023/01/12 11:54:02;;;;;;;14.35;6.72;;;-2.50;99.90;;;;;;4984782;28;20590;-73
2023/01/12 11:57:16;;;;;;;13.52;7.28;;;-2.50;99.90;;;;;;4988269;28;20545;-75
2023/01/12 11:59:57;;;;;;;10.73;6.43;;;-2.50;99.90;;;;;;4986786;28;20066;-74
2023/01/12 12:02:36;;;;;;;16.35;6.68;;;-2.50;99.90;;;;;;4986906;28;20046;-76
2023/01/12 12:05:25;;;;;;;16.42;6.80;;;-2.50;99.90;;;;;;5000739;28;20101;-73
2023/01/12 12:08:09;;;;;;;13.93;6.22;;;-2.50;99.90;;;;;;4992881;28;20046;-74
2023/01/12 12:10:47;;;;;;;9.43;5.75;;;-2.40;99.90;;;;;;4987482;28;20097;-75
2023/01/12 12:13:33;;;;;;;12.73;6.40;;;-2.30;99.90;;;;;;4989302;28;20140;-75
2023/01/12 12:16:21;;;;;;;9.73;6.07;;;-2.30;99.90;;;;;;4990702;28;20042;-68
2023/01/12 12:19:02;;;;;;;10.85;5.60;;;-2.40;99.90;;;;;;4985329;28;20084;-70
2023/01/12 12:21:49;;;;;;;9.88;5.60;;;-2.30;99.90;;;;;;4984292;28;20081;-69
2023/01/12 12:24:41;;;;;;;10.68;5.65;;;-2.40;99.90;;;;;;4991461;28;20043;-69
2023/01/12 12:27:18;;;;;;;6.93;5.10;;;-2.40;99.90;;;;;;4979370;28;20054;-69
2023/01/12 12:30:27;;;;;;;11.13;5.93;;;-2.40;99.90;;;;;;4988517;28;20077;-69
2023/01/12 12:33:05;;;;;;;7.88;5.00;;;-2.40;99.90;;;;;;4989476;28;20054;-70
2023/01/12 12:35:52;;;;;;;9.30;5.80;;;-2.30;99.90;;;;;;4987509;28;20684;-71
2023/01/12 12:38:37;;;;;;;9.00;5.45;;;-2.30;99.90;;;;;;4986443;28;20050;-69
2023/01/12 12:47:57;;;;;;;9.27;5.05;;;-2.30;99.90;;;;;;4984263;28;20396;-69
2023/01/12 12:50:37;;;;;;;10.93;6.00;;;-2.30;99.90;;;;;;4991336;28;20057;-74
2023/01/12 12:53:27;;;;;;;10.00;5.53;;;-2.30;99.90;;;;;;4984617;28;20054;-75
2023/01/12 12:55:58;;;;;;;10.20;5.95;;;-2.30;99.90;;;;;;4985825;28;20138;-72
2023/01/12 12:58:45;;;;;;;8.55;4.72;;;-2.30;99.90;;;;;;4991055;28;20054;-74
2023/01/12 13:01:55;;;;;;;12.77;5.50;;;-2.30;99.90;;;;;;4994395;28;20061;-73
2023/01/12 13:05:00;;;;;;;8.13;5.68;;;-2.30;99.90;;;;;;4991599;28;20129;-74
2023/01/12 13:07:28;;;;;;;8.70;4.95;;;-2.30;99.90;;;;;;4977995;28;20057;-70
2023/01/12 13:13:01;;;;;;;9.23;5.80;;;-2.30;99.90;;;;;;5167202;27;20748;-70
2023/01/12 13:15:36;;;;;;;9.45;5.75;;;-2.30;99.90;;;;;;5143337;27;20051;-69
2023/01/12 13:18:06;;;;;;;10.85;6.68;;;-2.30;99.90;;;;;;5126803;27;20047;-69
2023/01/12 13:20:54;;;;;;;14.05;6.25;;;-2.20;99.90;;;;;;5134440;27;20042;-68
2023/01/12 13:24:23;;;;;;;10.02;5.80;;;-2.20;99.90;;;;;;5120446;27;20043;-74
2023/01/12 13:26:52;;;;;;;10.90;5.78;;;-2.30;99.90;;;;;;5138888;27;20046;-68
2023/01/12 13:29:43;;;;;;;8.90;4.97;;;-2.20;99.90;;;;;;5123301;27;20587;-69
2023/01/12 13:32:57;;;;;;;10.93;5.90;;;-2.20;99.90;;;;;;5128932;27;20051;-68
2023/01/12 13:36:04;;;;;;;12.13;5.45;;;-2.20;99.90;;;;;;5145736;27;20050;-66
2023/01/12 13:39:07;;;;;;;9.90;5.78;;;-2.20;99.90;;;;;;5145952;27;20119;-69
2023/01/12 13:44:29;;;;;;;11.07;5.70;;;-2.20;99.90;;;;;;5095554;28;20046;-68
2023/01/12 13:47:07;;;;;;;13.25;5.88;;;-2.10;99.90;;;;;;5128111;27;20298;-72
2023/01/12 13:49:44;;;;;;;9.65;5.95;;;-2.20;99.90;;;;;;5133077;27;20050;-73
2023/01/12 13:52:24;;;;;;;10.38;5.90;;;-2.20;99.90;;;;;;5145905;27;20429;-74
2023/01/12 13:54:52;;;;;;;8.85;6.30;;;-2.20;99.90;;;;;;5148651;27;20066;-74
2023/01/12 13:57:22;;;;;;;14.95;6.75;;;-2.20;99.90;;;;;;5147163;27;20042;-73